Weather Data

Pearl Creek Farm: 8878 N Farm Road 75, Walnut Grove MO 65770

<== Previous Day (Tuesday 08 Aug 2017) | Next Day (Thursday 10 Aug 2017) ==>

Summary Precipitation Data For Wednesday 09 August 2017

ElementValueUnits
Precipitation0"
Notes(none)
SourcePearl Creek Farm

Summary Temperature Data For Wednesday 09 August 2017

ElementValueUnits
High Temperature83 oF
Low Temperature64 oF
Average Temperature74 oF
High Humidity90 %
Low Humidity47 %
Average Humidity69 %
SourceSpringfield-Branson National Airport (SGF)

Detail Temperature Data For Wednesday 09 August 2017

Date / TimeTemp (F)RH (%)Dew Pt (F)Report Date / TimeSource
2017-08-09 00:52:00 67 81 61.0 2017-12-29 17:00:26.17417 Springfield-Branson National Airport (SGF)
2017-08-09 01:52:00 66 84 61.0 2017-12-29 17:00:26.17417 Springfield-Branson National Airport (SGF)
2017-08-09 02:52:00 65 87 61.0 2017-12-29 17:00:26.17417 Springfield-Branson National Airport (SGF)
2017-08-09 03:52:00 64 90 61.0 2017-12-29 17:00:26.17417 Springfield-Branson National Airport (SGF)
2017-08-09 04:52:00 64 90 61.0 2017-12-29 17:00:26.17417 Springfield-Branson National Airport (SGF)
2017-08-09 05:52:00 64 90 61.0 2017-12-29 17:00:26.17417 Springfield-Branson National Airport (SGF)
2017-08-09 06:52:00 68 81 62.0 2017-12-29 17:00:26.17417 Springfield-Branson National Airport (SGF)
2017-08-09 07:52:00 72 73 63.0 2017-12-29 17:00:26.17417 Springfield-Branson National Airport (SGF)
2017-08-09 08:52:00 75 66 63.0 2017-12-29 17:00:26.17417 Springfield-Branson National Airport (SGF)
2017-08-09 09:52:00 76 67 64.0 2017-12-29 17:00:26.17417 Springfield-Branson National Airport (SGF)
2017-08-09 10:52:00 79 58 63.0 2017-12-29 17:00:26.17417 Springfield-Branson National Airport (SGF)
2017-08-09 11:52:00 81 54 63.0 2017-12-29 17:00:26.17417 Springfield-Branson National Airport (SGF)
2017-08-09 12:52:00 82 53 63.0 2017-12-29 17:00:26.17417 Springfield-Branson National Airport (SGF)
2017-08-09 13:52:00 82 47 60.0 2017-12-29 17:00:26.17417 Springfield-Branson National Airport (SGF)
2017-08-09 14:52:00 82 47 60.0 2017-12-29 17:00:26.17417 Springfield-Branson National Airport (SGF)
2017-08-09 15:52:00 83 49 62.0 2017-12-29 17:00:26.17417 Springfield-Branson National Airport (SGF)
2017-08-09 16:52:00 83 49 62.0 2017-12-29 17:00:26.17417 Springfield-Branson National Airport (SGF)
2017-08-09 17:52:00 81 54 63.0 2017-12-29 17:00:26.17417 Springfield-Branson National Airport (SGF)
2017-08-09 18:52:00 78 67 66.0 2017-12-29 17:00:26.17417 Springfield-Branson National Airport (SGF)
2017-08-09 19:52:00 76 69 65.0 2017-12-29 17:00:26.17417 Springfield-Branson National Airport (SGF)
2017-08-09 20:52:00 75 71 65.0 2017-12-29 17:00:26.17417 Springfield-Branson National Airport (SGF)
2017-08-09 21:52:00 72 79 65.0 2017-12-29 17:00:26.17417 Springfield-Branson National Airport (SGF)
2017-08-09 22:52:00 73 74 64.0 2017-12-29 17:00:26.17417 Springfield-Branson National Airport (SGF)
2017-08-09 23:52:00 73 74 64.0 2017-12-29 17:00:26.17417 Springfield-Branson National Airport (SGF)

A total of 24 rows are displayed.